Time;durP1;ratioP1;P1;durP2;ratioP2;P2;SDS_P1;SDS_P2;PMS_P1;PMS_P2;Temp;Humidity;BMP_temperature;BMP_pressure;BME280_temperature;BME280_humidity;BME280_pressure;Samples;Min_cycle;Max_cycle;Signal;HPM_P1;HPM_P2
2020/12/12 08:13:40;;;;;;;9.70;4.97;;;;;;;;;;4261907;27;20525;-50
2020/12/12 08:16:13;;;;;;;11.55;4.90;;;;;;;;;;4262527;27;20551;-48
2020/12/12 08:18:36;;;;;;;20.38;8.10;;;;;;;;;;4262379;27;20101;-56
2020/12/12 08:21:19;;;;;;;12.10;10.07;;;;;;;;;;4246761;27;20632;-57
2020/12/12 08:23:43;;;;;;;15.60;10.70;;;;;;;;;;4261408;27;20100;-56
2020/12/12 08:26:05;;;;;;;12.23;10.05;;;;;;;;;;4253071;27;20085;-56
2020/12/12 08:28:29;;;;;;;10.95;9.70;;;;;;;;;;4253170;27;20062;-56
2020/12/12 08:30:51;;;;;;;;;;;;;;;;;;4253499;27;20139;-59
2020/12/12 08:33:13;;;;;;;14.77;11.40;;;;;;;;;;4237125;27;19977;-59
2020/12/12 08:35:33;;;;;;;12.93;10.18;;;;;;;;;;4251857;27;20057;-59
2020/12/12 08:37:59;;;;;;;11.98;10.77;;;;;;;;;;4252594;27;20057;-59
2020/12/12 08:40:19;;;;;;;13.85;11.00;;;;;;;;;;4252719;27;20093;-59
2020/12/12 08:42:40;;;;;;;13.43;11.25;;;;;;;;;;4237700;27;20077;-59
2020/12/12 08:45:13;;;;;;;11.77;10.43;;;;;;;;;;4253257;27;20236;-59
2020/12/12 08:47:38;;;;;;;12.43;10.85;;;;;;;;;;4253686;27;20046;-57
2020/12/12 08:50:02;;;;;;;14.85;8.63;;;;;;;;;;4252565;27;20061;-57
2020/12/12 08:52:26;;;;;;;12.60;7.78;;;;;;;;;;4252590;27;20045;-57
2020/12/12 08:54:58;;;;;;;21.98;7.00;;;;;;;;;;4229905;28;20062;-58
2020/12/12 08:57:25;;;;;;;26.88;10.68;;;;;;;;;;4244693;28;20049;-50
2020/12/12 08:59:46;;;;;;;22.45;10.82;;;;;;;;;;4229007;28;20055;-49
2020/12/12 09:02:17;;;;;;;18.00;8.88;;;;;;;;;;4260692;27;20054;-49
2020/12/12 09:04:41;;;;;;;15.27;6.82;;;;;;;;;;4262042;27;20116;-49
2020/12/12 09:07:05;;;;;;;12.25;6.35;;;;;;;;;;4259559;27;20124;-52
2020/12/12 09:09:32;;;;;;;8.60;5.65;;;;;;;;;;4258442;27;20062;-50
2020/12/12 09:12:02;;;;;;;8.85;5.50;;;;;;;;;;4256715;27;20523;-52
2020/12/12 09:14:27;;;;;;;8.40;4.43;;;;;;;;;;4254859;27;20058;-51
2020/12/12 09:16:52;;;;;;;8.15;4.38;;;;;;;;;;4257050;27;20058;-52
2020/12/12 09:19:15;;;;;;;7.80;3.80;;;;;;;;;;4228300;27;20062;-50
2020/12/12 09:21:53;;;;;;;8.52;3.85;;;;;;;;;;4243839;28;20082;-49
2020/12/12 09:24:18;;;;;;;6.15;3.25;;;;;;;;;;4221204;28;20059;-49
2020/12/12 09:26:39;;;;;;;8.60;3.25;;;;;;;;;;4232772;28;20128;-49
2020/12/12 09:29:00;;;;;;;9.15;3.28;;;;;;;;;;4217118;28;20729;-53
2020/12/12 09:31:22;;;;;;;7.97;2.78;;;;;;;;;;4248449;27;20080;-51
2020/12/12 09:33:43;;;;;;;4.82;2.63;;;;;;;;;;4239312;27;20485;-52
2020/12/12 09:36:06;;;;;;;11.38;3.45;;;;;;;;;;4225268;27;20053;-49
2020/12/12 09:38:28;;;;;;;4.40;3.20;;;;;;;;;;4240594;27;20122;-49
2020/12/12 09:40:58;;;;;;;5.60;2.72;;;;;;;;;;4240305;27;20085;-48
2020/12/12 09:43:21;;;;;;;6.43;2.75;;;;;;;;;;4239886;27;20061;-50
2020/12/12 09:45:46;;;;;;;4.70;2.33;;;;;;;;;;4239404;27;20127;-50
2020/12/12 09:48:10;;;;;;;5.15;2.47;;;;;;;;;;4240011;27;20176;-51
2020/12/12 09:50:34;;;;;;;4.38;2.30;;;;;;;;;;4249087;27;20180;-50
2020/12/12 09:52:54;;;;;;;4.80;1.98;;;;;;;;;;4229729;27;20051;-48
2020/12/12 09:55:19;;;;;;;3.13;2.00;;;;;;;;;;4241698;27;20578;-47
2020/12/12 09:57:40;;;;;;;3.97;2.22;;;;;;;;;;4240798;27;20054;-50
2020/12/12 10:00:01;;;;;;;4.15;2.17;;;;;;;;;;4240518;27;20135;-49
2020/12/12 10:02:22;;;;;;;5.97;2.17;;;;;;;;;;4242264;27;20074;-50
2020/12/12 10:04:45;;;;;;;4.57;2.33;;;;;;;;;;4224830;27;20154;-48
2020/12/12 10:07:06;;;;;;;4.53;2.25;;;;;;;;;;4239509;27;20621;-51
2020/12/12 10:09:29;;;;;;;4.68;2.25;;;;;;;;;;4239880;27;20057;-51
2020/12/12 10:11:51;;;;;;;3.10;2.10;;;;;;;;;;4239267;27;20090;-49
2020/12/12 10:14:21;;;;;;;3.05;1.70;;;;;;;;;;4237025;27;20075;-49
2020/12/12 10:16:44;;;;;;;4.75;1.70;;;;;;;;;;4240797;27;20054;-49
2020/12/12 10:19:05;;;;;;;2.55;1.75;;;;;;;;;;4219501;27;20066;-48
2020/12/12 10:21:28;;;;;;;3.42;1.80;;;;;;;;;;4236664;27;20092;-48
2020/12/12 10:23:50;;;;;;;6.53;2.20;;;;;;;;;;4240042;27;20100;-49
2020/12/12 10:26:20;;;;;;;2.42;1.98;;;;;;;;;;4239985;27;20121;-49
2020/12/12 10:28:44;;;;;;;2.58;1.70;;;;;;;;;;4223706;28;20058;-51
2020/12/12 10:31:04;;;;;;;3.78;1.95;;;;;;;;;;4236964;27;20058;-49
2020/12/12 10:33:28;;;;;;;2.30;1.80;;;;;;;;;;4240515;27;20123;-48
2020/12/12 10:35:49;;;;;;;2.70;1.45;;;;;;;;;;4238582;27;20062;-48
2020/12/12 10:38:14;;;;;;;3.05;1.83;;;;;;;;;;4240237;27;20050;-52
2020/12/12 10:40:37;;;;;;;1.92;1.73;;;;;;;;;;4241051;27;20569;-48
2020/12/12 10:43:09;;;;;;;3.58;1.92;;;;;;;;;;4239144;27;20057;-49
2020/12/12 10:45:30;;;;;;;2.85;2.15;;;;;;;;;;4239923;27;20054;-50
2020/12/12 10:47:54;;;;;;;4.63;1.42;;;;;;;;;;4239760;27;20460;-48
2020/12/12 10:50:14;;;;;;;2.15;1.60;;;;;;;;;;4239502;27;20100;-50
2020/12/12 10:52:38;;;;;;;3.55;1.80;;;;;;;;;;4242000;27;20702;-49
2020/12/12 10:54:59;;;;;;;2.72;1.90;;;;;;;;;;4224318;27;20089;-51
2020/12/12 10:57:26;;;;;;;2.55;1.50;;;;;;;;;;4218571;28;20142;-50
2020/12/12 10:59:47;;;;;;;3.10;1.70;;;;;;;;;;4233212;27;20109;-51
2020/12/12 11:02:08;;;;;;;3.53;2.05;;;;;;;;;;4242503;27;20120;-49
2020/12/12 11:04:32;;;;;;;2.42;1.60;;;;;;;;;;4239989;27;20139;-51
2020/12/12 11:06:55;;;;;;;2.13;1.60;;;;;;;;;;4223671;28;20149;-49
2020/12/12 11:09:16;;;;;;;3.60;1.38;;;;;;;;;;4239674;27;20076;-52
2020/12/12 11:11:39;;;;;;;2.40;1.90;;;;;;;;;;4240277;27;20123;-50
2020/12/12 11:14:00;;;;;;;2.42;1.67;;;;;;;;;;4242108;27;20565;-50
2020/12/12 11:16:27;;;;;;;4.32;1.80;;;;;;;;;;4237943;27;20062;-51
2020/12/12 11:18:53;;;;;;;3.65;1.52;;;;;;;;;;4234268;27;20065;-56
2020/12/12 11:21:13;;;;;;;3.53;1.95;;;;;;;;;;4241086;27;20054;-57
2020/12/12 11:23:34;;;;;;;2.05;1.80;;;;;;;;;;4220679;27;20161;-57
2020/12/12 11:25:58;;;;;;;2.72;1.42;;;;;;;;;;4238777;27;20061;-58
2020/12/12 11:28:19;;;;;;;5.00;2.10;;;;;;;;;;4238187;27;20173;-57
2020/12/12 11:30:39;;;;;;;5.55;1.88;;;;;;;;;;4237210;27;20090;-57
2020/12/12 11:33:04;;;;;;;4.70;2.03;;;;;;;;;;4241259;27;20078;-58
2020/12/12 11:35:33;;;;;;;4.72;1.73;;;;;;;;;;4213845;28;20681;-59
2020/12/12 11:40:51;;;;;;;4.90;1.50;;;;;;;;;;4210235;28;20070;-59
2020/12/12 11:46:27;;;;;;;;;;;;;;;;;;4240369;27;19925;-57
2020/12/12 11:48:49;;;;;;;;;;;;;;;;;;4235934;27;19931;-58
2020/12/12 11:51:11;;;;;;;6.05;1.90;;;;;;;;;;4227768;27;19957;-59
2020/12/12 11:53:32;;;;;;;3.75;2.00;;;;;;;;;;4239049;27;20092;-58
2020/12/12 11:55:56;;;;;;;4.15;1.80;;;;;;;;;;4245941;27;20058;-58
2020/12/12 11:58:17;;;;;;;4.85;1.23;;;;;;;;;;4245800;27;20050;-59
2020/12/12 12:00:46;;;;;;;4.28;1.40;;;;;;;;;;4238456;27;20111;-59
2020/12/12 12:03:07;;;;;;;3.42;1.73;;;;;;;;;;4245685;27;20125;-58
2020/12/12 12:05:32;;;;;;;3.00;2.05;;;;;;;;;;4245667;27;20093;-58
2020/12/12 12:08:01;;;;;;;4.43;1.50;;;;;;;;;;4239068;27;20066;-58
2020/12/12 12:10:35;;;;;;;3.40;1.45;;;;;;;;;;4229493;28;20063;-58
2020/12/12 12:13:00;;;;;;;2.67;1.50;;;;;;;;;;4229788;28;20067;-58
2020/12/12 12:15:21;;;;;;;2.90;1.60;;;;;;;;;;4229847;28;20059;-58
2020/12/12 12:17:42;;;;;;;8.30;2.25;;;;;;;;;;4216009;28;20067;-57
2020/12/12 12:20:07;;;;;;;4.90;1.38;;;;;;;;;;4227651;28;20164;-58
2020/12/12 12:22:30;;;;;;;3.30;1.60;;;;;;;;;;4237497;28;20522;-58
2020/12/12 12:24:58;;;;;;;3.08;1.50;;;;;;;;;;4236485;28;20143;-57
2020/12/12 12:27:19;;;;;;;2.55;1.38;;;;;;;;;;4237303;28;20065;-58
2020/12/12 12:29:45;;;;;;;1.98;1.13;;;;;;;;;;4235984;28;20066;-60
2020/12/12 12:32:09;;;;;;;3.47;1.73;;;;;;;;;;4224149;28;20107;-58
2020/12/12 12:34:29;;;;;;;4.63;1.33;;;;;;;;;;4239617;28;20112;-58
2020/12/12 12:36:55;;;;;;;2.75;1.38;;;;;;;;;;4231637;28;20137;-58
2020/12/12 12:39:18;;;;;;;4.25;1.90;;;;;;;;;;4239472;28;20062;-58
2020/12/12 12:41:39;;;;;;;5.38;1.95;;;;;;;;;;4236098;28;20516;-58
2020/12/12 12:44:05;;;;;;;4.38;1.63;;;;;;;;;;4236109;28;20147;-53
2020/12/12 12:46:29;;;;;;;2.72;1.63;;;;;;;;;;4229374;28;20559;-52
2020/12/12 12:48:50;;;;;;;5.65;1.75;;;;;;;;;;4214000;28;20099;-53
2020/12/12 12:51:13;;;;;;;2.40;1.20;;;;;;;;;;4244901;27;20111;-54
2020/12/12 12:53:35;;;;;;;3.03;1.33;;;;;;;;;;4232292;28;20059;-53
2020/12/12 12:55:56;;;;;;;2.55;1.35;;;;;;;;;;4229200;28;20218;-53
2020/12/12 12:58:20;;;;;;;2.53;1.33;;;;;;;;;;4230657;28;20070;-53
2020/12/12 13:00:43;;;;;;;4.90;1.48;;;;;;;;;;4246282;27;20054;-53
2020/12/12 13:03:04;;;;;;;1.73;1.10;;;;;;;;;;4225935;27;20050;-52
2020/12/12 13:05:27;;;;;;;2.80;1.40;;;;;;;;;;4240058;27;20054;-52
2020/12/12 13:07:48;;;;;;;2.72;1.40;;;;;;;;;;4240323;27;20063;-52
2020/12/12 13:10:12;;;;;;;2.97;1.40;;;;;;;;;;4240555;27;20059;-53
2020/12/12 13:12:32;;;;;;;1.45;1.27;;;;;;;;;;4224568;27;20745;-52
2020/12/12 13:15:00;;;;;;;2.08;1.02;;;;;;;;;;4249331;27;20061;-51
2020/12/12 13:17:23;;;;;;;2.63;1.33;;;;;;;;;;4227190;27;20137;-49
2020/12/12 13:19:47;;;;;;;1.90;1.20;;;;;;;;;;4238821;27;20546;-53
2020/12/12 13:22:11;;;;;;;3.47;1.70;;;;;;;;;;4238180;27;20050;-51
2020/12/12 13:24:36;;;;;;;4.13;1.45;;;;;;;;;;4240115;27;20073;-51
2020/12/12 13:27:00;;;;;;;4.68;1.60;;;;;;;;;;4236565;27;20059;-46
